KFDK/FDK METAR and TAF weather

Enter ICAO airport designator
Station Type Date Time Source
KFDK METAR 2019/06/17 14:47 UTC NOAA

KFDK 171447Z 26005KT 10SM SKC 28/20 A3002


Station Type Date Time Source
KFDK Decoded METAR 2019/06/17 14:47 UTC NOAA

Frederick, Frederick Municipal Airport, MD, United States (KFDK) 39-25-03N 077-22-28W
Jun 17, 2019 - 10:47 AM EDT / 2019.06.17 1447 UTC
Wind: from the W (260 degrees) at 6 MPH (5 KT):0
Visibility: 10 mile(s):0
Sky conditions: clear
Temperature: 82 F (28 C)
Dew Point: 68 F (20 C)
Relative Humidity: 61%
Pressure (altimeter): 30.02 in. Hg (1016 hPa)
ob: KFDK 171447Z 26005KT 10SM SKC 28/20 A3002
cycle: 15

Station Type Date Time Source
KFDK TAF UTC NOAA

Error!

Example: see airport list